sensor_id;sensor_type;location;lat;lon;timestamp;P1;durP1;ratioP1;P2;durP2;ratioP2
56999;SDS011;42891;50.006;21.964;2022-10-30T00:02:35;7.70;;;5.57;;
56999;SDS011;42891;50.006;21.964;2022-10-30T00:06:35;7.10;;;5.10;;
56999;SDS011;42891;50.006;21.964;2022-10-30T00:10:35;6.67;;;4.53;;
56999;SDS011;42891;50.006;21.964;2022-10-30T00:14:36;7.78;;;5.10;;
56999;SDS011;42891;50.006;21.964;2022-10-30T00:18:36;13.65;;;5.00;;
56999;SDS011;42891;50.006;21.964;2022-10-30T00:22:38;8.10;;;4.70;;
56999;SDS011;42891;50.006;21.964;2022-10-30T00:26:38;7.43;;;4.67;;
56999;SDS011;42891;50.006;21.964;2022-10-30T00:30:39;9.07;;;4.87;;
56999;SDS011;42891;50.006;21.964;2022-10-30T00:34:39;6.72;;;5.10;;
56999;SDS011;42891;50.006;21.964;2022-10-30T00:38:39;9.07;;;5.20;;
56999;SDS011;42891;50.006;21.964;2022-10-30T00:42:40;7.60;;;5.00;;
56999;SDS011;42891;50.006;21.964;2022-10-30T00:46:40;6.82;;;5.00;;
56999;SDS011;42891;50.006;21.964;2022-10-30T00:50:41;7.72;;;4.80;;
56999;SDS011;42891;50.006;21.964;2022-10-30T00:54:41;5.55;;;4.60;;
56999;SDS011;42891;50.006;21.964;2022-10-30T00:58:44;7.60;;;4.68;;
56999;SDS011;42891;50.006;21.964;2022-10-30T01:02:48;5.55;;;4.90;;
56999;SDS011;42891;50.006;21.964;2022-10-30T01:06:50;6.15;;;4.38;;
56999;SDS011;42891;50.006;21.964;2022-10-30T01:10:51;9.90;;;5.00;;
56999;SDS011;42891;50.006;21.964;2022-10-30T01:14:54;10.07;;;4.82;;
56999;SDS011;42891;50.006;21.964;2022-10-30T01:23:24;7.45;;;4.30;;
56999;SDS011;42891;50.006;21.964;2022-10-30T01:27:38;6.10;;;4.90;;
56999;SDS011;42891;50.006;21.964;2022-10-30T01:40:18;7.60;;;5.68;;
56999;SDS011;42891;50.006;21.964;2022-10-30T01:44:29;6.78;;;4.97;;
56999;SDS011;42891;50.006;21.964;2022-10-30T01:52:54;6.70;;;5.15;;
56999;SDS011;42891;50.006;21.964;2022-10-30T01:57:22;7.05;;;4.85;;
56999;SDS011;42891;50.006;21.964;2022-10-30T02:01:28;7.45;;;4.80;;
56999;SDS011;42891;50.006;21.964;2022-10-30T02:05:36;6.45;;;4.55;;
56999;SDS011;42891;50.006;21.964;2022-10-30T02:09:40;7.93;;;4.75;;
56999;SDS011;42891;50.006;21.964;2022-10-30T02:13:41;6.10;;;4.28;;
56999;SDS011;42891;50.006;21.964;2022-10-30T02:17:42;6.85;;;4.60;;
56999;SDS011;42891;50.006;21.964;2022-10-30T02:21:42;6.40;;;4.68;;
56999;SDS011;42891;50.006;21.964;2022-10-30T02:25:42;7.20;;;4.90;;
56999;SDS011;42891;50.006;21.964;2022-10-30T02:29:42;7.43;;;4.87;;
56999;SDS011;42891;50.006;21.964;2022-10-30T02:33:44;6.70;;;4.80;;
56999;SDS011;42891;50.006;21.964;2022-10-30T02:37:48;8.02;;;4.80;;
56999;SDS011;42891;50.006;21.964;2022-10-30T02:41:48;7.38;;;5.07;;
56999;SDS011;42891;50.006;21.964;2022-10-30T02:45:49;8.05;;;5.05;;
56999;SDS011;42891;50.006;21.964;2022-10-30T02:49:50;9.95;;;5.40;;
56999;SDS011;42891;50.006;21.964;2022-10-30T02:53:51;6.82;;;4.90;;
56999;SDS011;42891;50.006;21.964;2022-10-30T02:57:51;6.53;;;5.07;;
56999;SDS011;42891;50.006;21.964;2022-10-30T03:01:53;8.32;;;4.88;;
56999;SDS011;42891;50.006;21.964;2022-10-30T03:05:53;6.43;;;4.90;;
56999;SDS011;42891;50.006;21.964;2022-10-30T03:09:53;6.73;;;4.70;;
56999;SDS011;42891;50.006;21.964;2022-10-30T03:13:53;5.45;;;4.65;;
56999;SDS011;42891;50.006;21.964;2022-10-30T03:17:54;7.22;;;4.90;;
56999;SDS011;42891;50.006;21.964;2022-10-30T03:21:54;8.60;;;4.43;;
56999;SDS011;42891;50.006;21.964;2022-10-30T03:25:55;5.00;;;4.50;;
56999;SDS011;42891;50.006;21.964;2022-10-30T03:29:56;7.60;;;4.85;;
56999;SDS011;42891;50.006;21.964;2022-10-30T03:33:57;6.32;;;4.60;;
56999;SDS011;42891;50.006;21.964;2022-10-30T03:37:57;8.52;;;4.97;;
56999;SDS011;42891;50.006;21.964;2022-10-30T03:41:57;5.83;;;4.70;;
56999;SDS011;42891;50.006;21.964;2022-10-30T03:45:57;6.60;;;4.97;;
56999;SDS011;42891;50.006;21.964;2022-10-30T03:49:58;7.22;;;4.60;;
56999;SDS011;42891;50.006;21.964;2022-10-30T03:53:58;5.23;;;4.40;;
56999;SDS011;42891;50.006;21.964;2022-10-30T03:57:59;6.50;;;4.83;;
56999;SDS011;42891;50.006;21.964;2022-10-30T04:01:59;7.07;;;4.70;;
56999;SDS011;42891;50.006;21.964;2022-10-30T04:06:00;7.70;;;4.67;;
56999;SDS011;42891;50.006;21.964;2022-10-30T04:10:00;6.65;;;4.63;;
56999;SDS011;42891;50.006;21.964;2022-10-30T04:14:01;6.23;;;4.90;;
56999;SDS011;42891;50.006;21.964;2022-10-30T04:18:01;8.43;;;4.70;;
56999;SDS011;42891;50.006;21.964;2022-10-30T04:22:02;8.77;;;4.75;;
56999;SDS011;42891;50.006;21.964;2022-10-30T04:26:02;6.65;;;4.82;;
56999;SDS011;42891;50.006;21.964;2022-10-30T04:30:03;5.82;;;4.63;;
56999;SDS011;42891;50.006;21.964;2022-10-30T04:34:04;5.63;;;4.10;;
56999;SDS011;42891;50.006;21.964;2022-10-30T04:38:05;5.93;;;4.50;;
56999;SDS011;42891;50.006;21.964;2022-10-30T04:42:07;5.68;;;4.07;;
56999;SDS011;42891;50.006;21.964;2022-10-30T04:46:07;6.33;;;4.10;;
56999;SDS011;42891;50.006;21.964;2022-10-30T04:50:07;5.80;;;4.30;;
56999;SDS011;42891;50.006;21.964;2022-10-30T04:54:08;5.35;;;4.28;;
56999;SDS011;42891;50.006;21.964;2022-10-30T04:58:09;6.03;;;4.07;;
56999;SDS011;42891;50.006;21.964;2022-10-30T05:02:10;6.32;;;4.28;;
56999;SDS011;42891;50.006;21.964;2022-10-30T05:06:23;5.13;;;4.17;;
56999;SDS011;42891;50.006;21.964;2022-10-30T05:10:26;4.88;;;3.92;;
56999;SDS011;42891;50.006;21.964;2022-10-30T05:14:28;4.72;;;3.80;;
56999;SDS011;42891;50.006;21.964;2022-10-30T05:18:29;6.63;;;4.15;;
56999;SDS011;42891;50.006;21.964;2022-10-30T05:22:29;5.85;;;4.07;;
56999;SDS011;42891;50.006;21.964;2022-10-30T05:26:29;5.07;;;4.10;;
56999;SDS011;42891;50.006;21.964;2022-10-30T05:30:30;7.67;;;4.30;;
56999;SDS011;42891;50.006;21.964;2022-10-30T05:34:32;5.15;;;3.75;;
56999;SDS011;42891;50.006;21.964;2022-10-30T05:38:32;5.25;;;3.80;;
56999;SDS011;42891;50.006;21.964;2022-10-30T05:42:32;5.73;;;3.90;;
56999;SDS011;42891;50.006;21.964;2022-10-30T05:46:33;4.73;;;3.80;;
56999;SDS011;42891;50.006;21.964;2022-10-30T05:50:33;4.95;;;3.92;;
56999;SDS011;42891;50.006;21.964;2022-10-30T05:54:34;8.55;;;5.78;;
56999;SDS011;42891;50.006;21.964;2022-10-30T05:58:34;6.73;;;4.60;;
56999;SDS011;42891;50.006;21.964;2022-10-30T06:02:34;9.30;;;6.70;;
56999;SDS011;42891;50.006;21.964;2022-10-30T06:06:34;9.50;;;7.23;;
56999;SDS011;42891;50.006;21.964;2022-10-30T06:10:35;15.75;;;12.15;;
56999;SDS011;42891;50.006;21.964;2022-10-30T06:14:36;5.60;;;4.35;;
56999;SDS011;42891;50.006;21.964;2022-10-30T06:18:36;5.40;;;4.90;;
56999;SDS011;42891;50.006;21.964;2022-10-30T06:22:37;7.70;;;4.47;;
56999;SDS011;42891;50.006;21.964;2022-10-30T06:26:37;5.40;;;4.00;;
56999;SDS011;42891;50.006;21.964;2022-10-30T06:30:37;6.57;;;4.90;;
56999;SDS011;42891;50.006;21.964;2022-10-30T06:34:38;6.25;;;4.55;;
56999;SDS011;42891;50.006;21.964;2022-10-30T06:38:38;7.47;;;4.55;;
56999;SDS011;42891;50.006;21.964;2022-10-30T06:42:45;5.23;;;3.80;;
56999;SDS011;42891;50.006;21.964;2022-10-30T06:46:46;8.05;;;3.95;;
56999;SDS011;42891;50.006;21.964;2022-10-30T06:50:51;6.57;;;4.83;;
56999;SDS011;42891;50.006;21.964;2022-10-30T06:54:52;5.25;;;4.70;;
56999;SDS011;42891;50.006;21.964;2022-10-30T06:58:53;6.20;;;4.90;;
56999;SDS011;42891;50.006;21.964;2022-10-30T07:02:56;5.10;;;4.00;;
56999;SDS011;42891;50.006;21.964;2022-10-30T07:06:57;6.43;;;5.18;;
56999;SDS011;42891;50.006;21.964;2022-10-30T07:10:58;10.30;;;6.20;;
56999;SDS011;42891;50.006;21.964;2022-10-30T07:14:58;10.88;;;6.80;;
56999;SDS011;42891;50.006;21.964;2022-10-30T07:18:58;4.60;;;4.00;;
56999;SDS011;42891;50.006;21.964;2022-10-30T07:22:59;6.60;;;4.23;;
56999;SDS011;42891;50.006;21.964;2022-10-30T07:27:00;6.55;;;4.50;;
56999;SDS011;42891;50.006;21.964;2022-10-30T07:31:00;8.53;;;5.00;;
56999;SDS011;42891;50.006;21.964;2022-10-30T07:35:00;5.93;;;4.23;;
56999;SDS011;42891;50.006;21.964;2022-10-30T07:39:00;8.40;;;4.97;;
56999;SDS011;42891;50.006;21.964;2022-10-30T07:43:01;6.67;;;4.77;;
56999;SDS011;42891;50.006;21.964;2022-10-30T07:47:02;6.95;;;5.18;;
56999;SDS011;42891;50.006;21.964;2022-10-30T07:51:03;7.30;;;4.80;;
56999;SDS011;42891;50.006;21.964;2022-10-30T07:55:04;6.60;;;4.50;;
56999;SDS011;42891;50.006;21.964;2022-10-30T07:59:05;7.13;;;4.70;;
56999;SDS011;42891;50.006;21.964;2022-10-30T08:03:05;6.03;;;4.43;;
56999;SDS011;42891;50.006;21.964;2022-10-30T08:07:05;5.55;;;4.68;;
56999;SDS011;42891;50.006;21.964;2022-10-30T08:11:06;10.67;;;6.20;;
56999;SDS011;42891;50.006;21.964;2022-10-30T08:15:06;9.40;;;6.57;;
56999;SDS011;42891;50.006;21.964;2022-10-30T08:19:07;16.10;;;10.27;;
56999;SDS011;42891;50.006;21.964;2022-10-30T08:23:07;10.60;;;7.63;;
56999;SDS011;42891;50.006;21.964;2022-10-30T08:27:08;7.90;;;6.35;;
56999;SDS011;42891;50.006;21.964;2022-10-30T08:31:08;9.38;;;5.75;;
56999;SDS011;42891;50.006;21.964;2022-10-30T08:35:08;6.15;;;4.45;;
56999;SDS011;42891;50.006;21.964;2022-10-30T08:39:09;6.47;;;4.80;;
56999;SDS011;42891;50.006;21.964;2022-10-30T08:43:09;7.07;;;5.20;;
56999;SDS011;42891;50.006;21.964;2022-10-30T08:47:09;6.00;;;4.97;;
56999;SDS011;42891;50.006;21.964;2022-10-30T08:51:10;6.40;;;5.00;;
56999;SDS011;42891;50.006;21.964;2022-10-30T08:55:10;11.50;;;7.90;;
56999;SDS011;42891;50.006;21.964;2022-10-30T08:59:10;16.93;;;9.70;;
56999;SDS011;42891;50.006;21.964;2022-10-30T09:03:10;18.00;;;10.63;;
56999;SDS011;42891;50.006;21.964;2022-10-30T09:07:11;14.68;;;8.90;;
56999;SDS011;42891;50.006;21.964;2022-10-30T09:11:11;8.82;;;6.63;;
56999;SDS011;42891;50.006;21.964;2022-10-30T09:15:12;10.32;;;5.97;;
56999;SDS011;42891;50.006;21.964;2022-10-30T09:19:12;7.72;;;5.75;;
56999;SDS011;42891;50.006;21.964;2022-10-30T09:23:12;10.17;;;6.17;;
56999;SDS011;42891;50.006;21.964;2022-10-30T09:27:12;7.27;;;5.30;;
56999;SDS011;42891;50.006;21.964;2022-10-30T09:31:13;10.73;;;6.85;;
56999;SDS011;42891;50.006;21.964;2022-10-30T09:35:14;12.50;;;7.07;;
56999;SDS011;42891;50.006;21.964;2022-10-30T09:39:14;15.77;;;8.85;;
56999;SDS011;42891;50.006;21.964;2022-10-30T09:43:19;13.60;;;7.75;;
56999;SDS011;42891;50.006;21.964;2022-10-30T09:56:07;13.50;;;7.50;;
56999;SDS011;42891;50.006;21.964;2022-10-30T10:00:16;13.50;;;7.95;;
56999;SDS011;42891;50.006;21.964;2022-10-30T10:08:36;9.45;;;5.72;;
56999;SDS011;42891;50.006;21.964;2022-10-30T10:12:45;9.25;;;6.13;;
56999;SDS011;42891;50.006;21.964;2022-10-30T10:16:49;9.85;;;6.20;;
56999;SDS011;42891;50.006;21.964;2022-10-30T10:20:52;9.30;;;5.68;;
56999;SDS011;42891;50.006;21.964;2022-10-30T10:24:58;9.75;;;5.80;;
56999;SDS011;42891;50.006;21.964;2022-10-30T10:50:22;8.20;;;5.10;;
56999;SDS011;42891;50.006;21.964;2022-10-30T10:54:26;6.78;;;4.88;;
56999;SDS011;42891;50.006;21.964;2022-10-30T10:58:40;7.88;;;5.35;;
56999;SDS011;42891;50.006;21.964;2022-10-30T11:02:50;8.25;;;5.20;;
56999;SDS011;42891;50.006;21.964;2022-10-30T11:06:57;9.02;;;5.82;;
56999;SDS011;42891;50.006;21.964;2022-10-30T11:11:11;8.70;;;6.10;;
56999;SDS011;42891;50.006;21.964;2022-10-30T11:15:22;9.25;;;6.53;;
56999;SDS011;42891;50.006;21.964;2022-10-30T11:19:32;16.92;;;6.13;;
56999;SDS011;42891;50.006;21.964;2022-10-30T11:23:39;7.57;;;5.53;;
56999;SDS011;42891;50.006;21.964;2022-10-30T11:27:41;7.13;;;5.30;;
56999;SDS011;42891;50.006;21.964;2022-10-30T11:31:42;11.90;;;5.75;;
56999;SDS011;42891;50.006;21.964;2022-10-30T11:35:43;9.70;;;6.00;;
56999;SDS011;42891;50.006;21.964;2022-10-30T11:39:43;11.00;;;5.27;;
56999;SDS011;42891;50.006;21.964;2022-10-30T11:44:01;12.40;;;6.43;;
56999;SDS011;42891;50.006;21.964;2022-10-30T11:48:01;8.13;;;5.50;;
56999;SDS011;42891;50.006;21.964;2022-10-30T11:52:09;9.50;;;6.40;;
56999;SDS011;42891;50.006;21.964;2022-10-30T11:56:13;8.43;;;6.20;;
56999;SDS011;42891;50.006;21.964;2022-10-30T12:00:20;11.18;;;6.22;;
56999;SDS011;42891;50.006;21.964;2022-10-30T12:04:26;11.48;;;7.07;;
56999;SDS011;42891;50.006;21.964;2022-10-30T12:08:27;10.57;;;7.32;;
56999;SDS011;42891;50.006;21.964;2022-10-30T12:12:37;10.93;;;6.77;;
56999;SDS011;42891;50.006;21.964;2022-10-30T12:16:43;13.63;;;6.65;;
56999;SDS011;42891;50.006;21.964;2022-10-30T12:20:48;10.48;;;6.68;;
56999;SDS011;42891;50.006;21.964;2022-10-30T12:24:51;8.85;;;6.13;;
56999;SDS011;42891;50.006;21.964;2022-10-30T12:28:54;10.65;;;6.93;;
56999;SDS011;42891;50.006;21.964;2022-10-30T12:37:32;13.35;;;6.78;;
56999;SDS011;42891;50.006;21.964;2022-10-30T12:45:47;12.38;;;7.18;;
56999;SDS011;42891;50.006;21.964;2022-10-30T12:49:50;10.27;;;7.57;;
56999;SDS011;42891;50.006;21.964;2022-10-30T13:03:37;11.55;;;7.55;;
56999;SDS011;42891;50.006;21.964;2022-10-30T13:07:40;13.68;;;8.93;;
56999;SDS011;42891;50.006;21.964;2022-10-30T13:12:02;14.40;;;9.25;;
56999;SDS011;42891;50.006;21.964;2022-10-30T13:16:11;15.52;;;9.10;;
56999;SDS011;42891;50.006;21.964;2022-10-30T13:20:15;18.92;;;9.60;;
56999;SDS011;42891;50.006;21.964;2022-10-30T13:24:20;16.02;;;9.00;;
56999;SDS011;42891;50.006;21.964;2022-10-30T13:28:28;14.10;;;7.63;;
56999;SDS011;42891;50.006;21.964;2022-10-30T13:36:45;13.10;;;9.00;;
56999;SDS011;42891;50.006;21.964;2022-10-30T13:45:54;14.57;;;9.10;;
56999;SDS011;42891;50.006;21.964;2022-10-30T13:50:02;13.23;;;9.10;;
56999;SDS011;42891;50.006;21.964;2022-10-30T13:54:34;12.17;;;8.20;;
56999;SDS011;42891;50.006;21.964;2022-10-30T14:03:11;14.68;;;8.32;;
56999;SDS011;42891;50.006;21.964;2022-10-30T14:07:23;16.08;;;10.85;;
56999;SDS011;42891;50.006;21.964;2022-10-30T14:11:32;17.83;;;10.40;;
56999;SDS011;42891;50.006;21.964;2022-10-30T14:15:33;15.90;;;9.70;;
56999;SDS011;42891;50.006;21.964;2022-10-30T14:28:18;16.88;;;9.73;;
56999;SDS011;42891;50.006;21.964;2022-10-30T14:36:46;16.35;;;9.10;;
56999;SDS011;42891;50.006;21.964;2022-10-30T14:49:14;13.60;;;10.23;;
56999;SDS011;42891;50.006;21.964;2022-10-30T14:54:16;13.95;;;8.90;;
56999;SDS011;42891;50.006;21.964;2022-10-30T14:58:36;21.73;;;10.88;;
56999;SDS011;42891;50.006;21.964;2022-10-30T15:02:44;15.52;;;9.82;;
56999;SDS011;42891;50.006;21.964;2022-10-30T15:15:34;16.20;;;9.57;;
56999;SDS011;42891;50.006;21.964;2022-10-30T15:19:34;20.20;;;11.10;;
56999;SDS011;42891;50.006;21.964;2022-10-30T15:23:35;20.10;;;12.40;;
56999;SDS011;42891;50.006;21.964;2022-10-30T15:27:36;14.32;;;10.10;;
56999;SDS011;42891;50.006;21.964;2022-10-30T15:31:41;21.93;;;11.23;;
56999;SDS011;42891;50.006;21.964;2022-10-30T15:35:41;20.52;;;11.45;;
56999;SDS011;42891;50.006;21.964;2022-10-30T15:39:46;21.10;;;12.47;;
56999;SDS011;42891;50.006;21.964;2022-10-30T15:43:46;17.97;;;11.90;;
56999;SDS011;42891;50.006;21.964;2022-10-30T15:47:47;19.00;;;11.95;;
56999;SDS011;42891;50.006;21.964;2022-10-30T15:51:56;17.85;;;12.40;;
56999;SDS011;42891;50.006;21.964;2022-10-30T15:55:58;24.77;;;14.10;;
56999;SDS011;42891;50.006;21.964;2022-10-30T15:59:59;24.45;;;18.13;;
56999;SDS011;42891;50.006;21.964;2022-10-30T16:04:16;23.33;;;16.70;;
56999;SDS011;42891;50.006;21.964;2022-10-30T16:08:21;22.67;;;14.63;;
56999;SDS011;42891;50.006;21.964;2022-10-30T16:12:26;21.02;;;14.40;;
56999;SDS011;42891;50.006;21.964;2022-10-30T16:16:29;25.25;;;16.30;;
56999;SDS011;42891;50.006;21.964;2022-10-30T16:20:31;26.27;;;17.63;;
56999;SDS011;42891;50.006;21.964;2022-10-30T16:24:32;24.23;;;17.38;;
56999;SDS011;42891;50.006;21.964;2022-10-30T16:28:35;27.23;;;18.08;;
56999;SDS011;42891;50.006;21.964;2022-10-30T16:32:36;28.42;;;18.02;;
56999;SDS011;42891;50.006;21.964;2022-10-30T16:36:39;35.20;;;21.73;;
56999;SDS011;42891;50.006;21.964;2022-10-30T16:40:40;32.20;;;21.20;;
56999;SDS011;42891;50.006;21.964;2022-10-30T16:44:41;40.85;;;23.50;;
56999;SDS011;42891;50.006;21.964;2022-10-30T16:48:53;46.47;;;27.75;;
56999;SDS011;42891;50.006;21.964;2022-10-30T16:53:05;46.08;;;26.58;;
56999;SDS011;42891;50.006;21.964;2022-10-30T16:57:15;31.20;;;17.92;;
56999;SDS011;42891;50.006;21.964;2022-10-30T17:01:25;26.83;;;15.43;;
56999;SDS011;42891;50.006;21.964;2022-10-30T17:05:27;27.90;;;14.68;;
56999;SDS011;42891;50.006;21.964;2022-10-30T17:09:36;24.67;;;13.93;;
56999;SDS011;42891;50.006;21.964;2022-10-30T17:13:38;23.60;;;12.60;;
56999;SDS011;42891;50.006;21.964;2022-10-30T17:17:43;23.38;;;12.85;;
56999;SDS011;42891;50.006;21.964;2022-10-30T17:22:06;27.42;;;13.93;;
56999;SDS011;42891;50.006;21.964;2022-10-30T17:26:09;21.60;;;14.55;;
56999;SDS011;42891;50.006;21.964;2022-10-30T17:34:39;24.63;;;14.13;;
56999;SDS011;42891;50.006;21.964;2022-10-30T17:38:39;20.07;;;12.00;;
56999;SDS011;42891;50.006;21.964;2022-10-30T17:42:40;20.60;;;13.03;;
56999;SDS011;42891;50.006;21.964;2022-10-30T17:46:40;16.38;;;11.00;;
56999;SDS011;42891;50.006;21.964;2022-10-30T17:50:41;17.50;;;10.50;;
56999;SDS011;42891;50.006;21.964;2022-10-30T17:54:41;21.67;;;12.02;;
56999;SDS011;42891;50.006;21.964;2022-10-30T17:58:42;17.75;;;11.00;;
56999;SDS011;42891;50.006;21.964;2022-10-30T18:02:42;19.03;;;11.37;;
56999;SDS011;42891;50.006;21.964;2022-10-30T18:06:43;18.55;;;11.20;;
56999;SDS011;42891;50.006;21.964;2022-10-30T18:10:43;17.70;;;11.60;;
56999;SDS011;42891;50.006;21.964;2022-10-30T18:14:43;17.77;;;11.13;;
56999;SDS011;42891;50.006;21.964;2022-10-30T18:18:47;18.33;;;11.50;;
56999;SDS011;42891;50.006;21.964;2022-10-30T18:22:47;22.05;;;12.93;;
56999;SDS011;42891;50.006;21.964;2022-10-30T18:26:47;25.42;;;14.40;;
56999;SDS011;42891;50.006;21.964;2022-10-30T18:30:51;26.20;;;15.27;;
56999;SDS011;42891;50.006;21.964;2022-10-30T18:34:54;24.70;;;14.57;;
56999;SDS011;42891;50.006;21.964;2022-10-30T18:38:54;23.03;;;13.47;;
56999;SDS011;42891;50.006;21.964;2022-10-30T18:42:56;22.45;;;14.73;;
56999;SDS011;42891;50.006;21.964;2022-10-30T18:46:57;24.25;;;14.70;;
56999;SDS011;42891;50.006;21.964;2022-10-30T18:50:57;22.87;;;14.20;;
56999;SDS011;42891;50.006;21.964;2022-10-30T18:54:58;25.33;;;15.23;;
56999;SDS011;42891;50.006;21.964;2022-10-30T18:58:59;29.00;;;14.55;;
56999;SDS011;42891;50.006;21.964;2022-10-30T19:02:59;28.13;;;15.20;;
56999;SDS011;42891;50.006;21.964;2022-10-30T19:07:01;25.00;;;14.93;;
56999;SDS011;42891;50.006;21.964;2022-10-30T19:11:01;17.80;;;12.70;;
56999;SDS011;42891;50.006;21.964;2022-10-30T19:15:01;21.87;;;13.67;;
56999;SDS011;42891;50.006;21.964;2022-10-30T19:19:11;24.80;;;13.75;;
56999;SDS011;42891;50.006;21.964;2022-10-30T19:23:14;21.45;;;14.48;;
56999;SDS011;42891;50.006;21.964;2022-10-30T19:27:16;24.95;;;14.65;;
56999;SDS011;42891;50.006;21.964;2022-10-30T19:31:17;25.07;;;14.37;;
